Flight Track Log - Related Links

Times and Time Zones

All times are in EDT time to prevent confusion due to time zone crossing. See the EJA929 flight status page for this flight to view local times or setup timezone preferences in your user account.

Time Position Orientation Groundspeed Altitude Reporting Facility
EDT Latitude Longitude Course Direction KTS MPH feet Rate Location/Type
Thu 04:39:33 PM 42.9000 -78.7667 216° Southwest 189 217 5,900  Level Buffalo TRACON
Thu 04:40:22 PM 42.8506 -78.7244 148° Southeast 254 292 9,100 2,541 Climbing Cleveland Center
Thu 04:41:24 PM 42.8436 -78.6147 95° East 337 388 10,600 2,323 Climbing Cleveland Center
Thu 04:42:26 PM 42.8333 -78.4467 95° East 370 426 13,900 2,710 Climbing Cleveland Center
Thu 04:43:28 PM 42.8236 -78.3050 95° East 378 435 16,200 2,177 Climbing Cleveland Center
Thu 04:44:30 PM 42.7944 -78.1622 106° East 391 450 18,400 1,694 Climbing Cleveland Center
Thu 04:45:32 PM 42.7986 -78.0019 88° East 439 505 19,700 1,452 Climbing Cleveland Center
Thu 04:46:34 PM 42.8153 -77.8361 82° East 438 504 21,400 1,645 Climbing Cleveland Center
Thu 04:47:36 PM 42.7947 -77.6731 100° East 439 505 23,100 1,694 Climbing Cleveland Center
Thu 04:48:38 PM 42.7542 -77.5097 109° East 444 511 24,900 1,645 Climbing Cleveland Center
Thu 04:49:40 PM 42.7136 -77.3408 108° East 458 527 26,500 1,016 Climbing Cleveland Center
Thu 04:50:42 PM 42.6703 -77.1642 108° East 479 551 27,000 242 Climbing Cleveland Center
Thu 04:51:44 PM 42.6139 -76.9328 108° East 527 606 27,000  Level Cleveland Center
Thu 04:52:36 PM 42.5722 -76.7739 110° East 546 628 27,000  Level Boston Center
Thu 04:53:39 PM 42.5478 -76.5744 99° East 552 635 27,000 -585 Level Boston Center
Thu 04:54:39 PM 42.5875 -76.3764 75° East 548 631 25,800 -1,438 Descending Boston Center
Thu 04:55:40 PM 42.6314 -76.1800 73° East 549 632 24,100 -1,548 Descending Boston Center
Thu 04:56:43 PM 42.6311 -76.0025 90° East 494 568 22,600 -1,463 Descending Boston Center
Thu 04:57:43 PM 42.5717 -75.8489 118° Southeast 471 542 21,100 -1,636 Descending Boston Center
Thu 04:58:44 PM 42.4950 -75.6722 120° Southeast 460 529 19,300 -1,536 Descending Boston Center
Thu 04:59:48 PM 42.4361 -75.5386 121° Southeast 427 491 17,900 -677 Descending Boston Center
Thu 05:00:48 PM 42.3867 -75.4278 121° Southeast 362 417 17,900  Level Boston Center
Thu 05:01:48 PM 42.3378 -75.3172 121° Southeast 349 402 17,900  Level Boston Center
Thu 05:02:50 PM 42.2906 -75.2103 121° Southeast 341 392 17,900  Level Boston Center
Thu 05:03:51 PM 42.2403 -75.0950 120° Southeast 352 405 17,900  Level Boston Center
Thu 05:04:54 PM 42.1883 -74.9811 122° Southeast 356 410 17,900  Level Boston Center
Thu 05:05:55 PM 42.1300 -74.8400 119° Southeast 361 415 17,900  Level Boston Center
Thu 05:06:56 PM 42.0803 -74.7222 120° Southeast 364 419 17,900 -198 Level Boston Center
Thu 05:07:56 PM 42.0272 -74.5967 120° Southeast 368 423 17,500 -968 Descending Boston Center
Thu 05:09:00 PM 41.9792 -74.4822 119° Southeast 354 407 15,900 -1,728 Descending Boston Center
Thu 05:10:01 PM 41.9308 -74.3733 121° Southeast 340 391 13,900 -1,983 Descending Boston Center
Thu 05:11:01 PM 41.8861 -74.2669 119° Southeast 327 376 11,900 -1,438 Descending Boston Center
Thu 05:12:02 PM 41.8394 -74.1631 121° Southeast 302 348 11,000 -443 Descending Boston Center
Thu 05:13:03 PM 41.8353 -74.0456 93° East 319 367 11,000 -295 Level Boston Center
Thu 05:14:04 PM 41.8369 -73.9400 89° East 285 328 10,400 -768 Descending Boston Center
Thu 05:15:08 PM 41.8389 -73.8397 88° East 271 312 9,400 -689 Descending Boston Center
Thu 05:16:06 PM 41.8414 -73.7319 88° East 269 310 9,000 -350 Descending Boston Center
Thu 05:17:08 PM 41.8075 -73.6683 126° Southeast 235 270 8,700 -672 Descending Boston Center
Thu 05:18:11 PM 41.7578 -73.7019 207° Southwest 202 232 7,600 -968 Descending Boston Center
Thu 05:19:12 PM 41.7375 -73.7633 246° West 195 224 6,700 -793 Descending Boston Center
Thu 05:20:12 PM 41.7283 -73.8394 261° West 193 222 6,000 -347 Descending Boston Center
Thu 05:21:13 PM 41.7197 -73.9075 260° West 188 216 6,000  Level Boston Center
Thu 05:22:16 PM 41.7042 -73.9711 252° West 189 217 6,000  Level Boston Center
Thu 05:23:16 PM 41.6692 -73.9125 129° Southeast 249 287 6,000  Level Boston Center
Thu 05:24:17 PM 41.6578 -73.8094 98° East 261 300 6,000  Level Boston Center
Thu 05:25:20 PM 41.6411 -73.7161 103° East 257 296 6,000 57 Level Boston Center
Thu 05:26:03 PM 41.6000 -73.7167 181° South 206 237 6,100 58 Climbing New York TRACON
Thu 05:27:03 PM 41.5667 -73.7500 217° Southwest 153 176 6,100 -50 Level New York TRACON
Thu 05:28:03 PM 41.5167 -73.7667 194° South 165 190 6,000 -550 Descending New York TRACON
Thu 05:29:03 PM 41.4833 -73.7833 201° Southwest 163 188 5,000 -1,050 Descending New York TRACON
Thu 05:30:03 PM 41.4500 -73.8167 217° Southwest 145 167 3,900 -950 Descending New York TRACON
Thu 05:31:03 PM 41.4167 -73.8333 201° Southwest 137 158 3,100 -400 Descending New York TRACON
Thu 05:32:03 PM 41.3667 -73.8500 194° South 137 158 3,100  Level New York TRACON
Thu 05:33:03 PM 41.3333 -73.8667 201° Southwest 138 159 3,100  Level New York TRACON
Thu 05:34:03 PM 41.3000 -73.8833 201° Southwest 136 157 3,100  Level New York TRACON
Thu 05:35:03 PM 41.2667 -73.8500 143° Southeast 163 188 3,100  Level New York TRACON
Thu 05:36:03 PM 41.2333 -73.8333 159° South 148 170 3,100 -50 Level New York TRACON
Thu 05:37:03 PM 41.1833 -73.8000 153° Southeast 144 166 3,000 -400 Descending New York TRACON
Thu 05:38:03 PM 41.1500 -73.7833 159° South 140 161 2,300 -684 Descending New York TRACON
Thu 05:38:57 PM 41.1333 -73.7500 124° Southeast 121 139 1,700 -632 Descending New York TRACON
Thu 05:39:57 PM 41.1000 -73.7333 159° South 115 132 1,100 -600 Descending New York TRACON

Login

Don't have an account? Register now (free) for customized features, flight alerts, and more!